createdAt,value
2022-08-26T00:02:21.059Z,22.81
2022-08-26T00:04:52.199Z,22.80
2022-08-26T00:07:20.512Z,22.60
2022-08-26T00:09:50.035Z,22.84
2022-08-26T00:12:19.658Z,22.84
2022-08-26T00:15:00.735Z,22.62
2022-08-26T00:17:30.046Z,22.58
2022-08-26T00:19:59.772Z,22.80
2022-08-26T00:22:29.400Z,22.79
2022-08-26T00:24:58.515Z,22.74
2022-08-26T00:27:27.890Z,22.85
2022-08-26T00:29:56.281Z,22.86
2022-08-26T00:32:26.174Z,22.63
2022-08-26T00:34:54.516Z,22.62
2022-08-26T00:37:27.138Z,22.62
2022-08-26T00:39:55.778Z,22.40
2022-08-26T00:42:30.101Z,22.70
2022-08-26T00:44:58.536Z,22.52
2022-08-26T00:47:32.383Z,22.67
2022-08-26T00:50:03.298Z,22.47
2022-08-26T00:52:34.998Z,22.41
2022-08-26T00:55:09.200Z,22.09
2022-08-26T00:57:39.252Z,22.36
2022-08-26T01:00:11.678Z,22.27
2022-08-26T01:02:40.002Z,22.15
2022-08-26T01:05:15.977Z,22.10
2022-08-26T01:07:46.106Z,22.26
2022-08-26T01:10:18.807Z,21.97
2022-08-26T01:12:52.055Z,21.94
2022-08-26T01:15:24.070Z,21.81
2022-08-26T01:17:53.589Z,21.81
2022-08-26T01:20:29.801Z,22.00
2022-08-26T01:23:01.591Z,22.04
2022-08-26T01:25:33.602Z,21.90
2022-08-26T01:28:05.755Z,22.12
2022-08-26T01:30:35.605Z,22.05
2022-08-26T01:33:06.757Z,22.15
2022-08-26T01:35:35.071Z,22.20
2022-08-26T01:38:05.590Z,22.12
2022-08-26T01:40:37.742Z,22.02
2022-08-26T01:43:09.095Z,21.90
2022-08-26T01:45:40.857Z,21.82
2022-08-26T01:48:12.242Z,21.99
2022-08-26T01:50:43.305Z,22.06
2022-08-26T01:53:14.991Z,21.70
2022-08-26T01:55:46.168Z,21.72
2022-08-26T01:58:22.016Z,21.98
2022-08-26T02:00:54.760Z,21.99
2022-08-26T02:03:24.704Z,21.97
2022-08-26T02:05:58.312Z,22.09
2022-08-26T02:08:33.291Z,21.86
2022-08-26T02:11:04.189Z,22.02
2022-08-26T02:13:35.038Z,22.06
2022-08-26T02:16:06.423Z,21.98
2022-08-26T02:18:38.916Z,21.80
2022-08-26T02:23:52.502Z,21.74
2022-08-26T02:26:26.832Z,21.72
2022-08-26T02:28:58.208Z,21.77
2022-08-26T02:31:26.739Z,21.68
2022-08-26T02:33:56.115Z,21.87
2022-08-26T02:36:28.538Z,21.86
2022-08-26T02:39:00.531Z,22.02
2022-08-26T02:41:29.729Z,22.06
2022-08-26T02:44:02.153Z,21.86
2022-08-26T02:46:31.493Z,21.75
2022-08-26T02:49:01.731Z,21.77
2022-08-26T02:51:32.058Z,21.79
2022-08-26T02:54:04.301Z,21.86
2022-08-26T02:56:33.880Z,21.93
2022-08-26T02:59:03.647Z,21.97
2022-08-26T03:01:34.288Z,21.85
2022-08-26T03:04:04.777Z,21.83
2022-08-26T03:06:34.084Z,21.69
2022-08-26T03:09:05.516Z,21.63
2022-08-26T03:11:33.869Z,21.73
2022-08-26T03:14:03.866Z,21.78
2022-08-26T03:16:34.060Z,21.77
2022-08-26T03:19:03.510Z,21.83
2022-08-26T03:21:32.477Z,21.84
2022-08-26T03:24:00.824Z,21.94
2022-08-26T03:26:31.305Z,21.83
2022-08-26T03:29:29.736Z,21.72
2022-08-26T03:32:01.692Z,21.72
2022-08-26T03:34:29.870Z,21.72
2022-08-26T03:36:58.960Z,21.86
2022-08-26T03:39:27.032Z,21.76
2022-08-26T03:41:57.622Z,21.82
2022-08-26T03:44:25.775Z,21.68
2022-08-26T03:46:55.075Z,21.63
2022-08-26T03:49:23.727Z,21.81
2022-08-26T03:51:53.145Z,21.70
2022-08-26T03:54:21.718Z,21.63
2022-08-26T03:56:51.442Z,21.66
2022-08-26T03:59:22.381Z,21.58
2022-08-26T04:01:51.248Z,21.69
2022-08-26T04:04:22.590Z,21.76
2022-08-26T04:06:57.550Z,21.59
2022-08-26T04:09:26.667Z,21.52
2022-08-26T04:11:55.020Z,21.66
2022-08-26T04:14:28.484Z,21.74
2022-08-26T04:16:56.819Z,21.42
2022-08-26T04:19:26.208Z,21.63
2022-08-26T04:21:54.947Z,21.63
2022-08-26T04:24:24.100Z,21.61
2022-08-26T04:26:52.365Z,21.46
2022-08-26T04:29:24.296Z,21.57
2022-08-26T04:31:55.893Z,21.65
2022-08-26T04:34:28.369Z,21.65
2022-08-26T04:37:01.093Z,21.76
2022-08-26T04:39:29.551Z,21.59
2022-08-26T04:41:59.643Z,21.71
2022-08-26T04:44:31.198Z,21.64
2022-08-26T04:47:02.006Z,21.71
2022-08-26T04:49:35.526Z,21.63
2022-08-26T04:52:05.090Z,21.82
2022-08-26T04:54:33.805Z,22.04
2022-08-26T04:57:02.485Z,21.99
2022-08-26T04:59:38.477Z,21.89
2022-08-26T05:02:09.772Z,21.91
2022-08-26T05:04:43.526Z,21.93
2022-08-26T05:07:13.014Z,21.90
2022-08-26T05:09:42.051Z,21.86
2022-08-26T05:12:11.499Z,21.90
2022-08-26T05:14:41.490Z,22.16
2022-08-26T05:17:14.830Z,22.17
2022-08-26T05:19:43.444Z,22.11
2022-08-26T05:22:13.095Z,22.12
2022-08-26T05:24:41.524Z,22.39
2022-08-26T05:27:13.615Z,22.51
2022-08-26T05:29:42.793Z,22.54
2022-08-26T05:32:13.923Z,22.25
2022-08-26T05:34:42.921Z,22.34
2022-08-26T05:37:11.281Z,22.28
2022-08-26T05:39:43.513Z,22.28
2022-08-26T05:42:20.767Z,22.48
2022-08-26T05:44:56.674Z,22.56
2022-08-26T05:47:28.231Z,22.61
2022-08-26T05:49:56.904Z,22.59
2022-08-26T05:52:26.297Z,22.58
2022-08-26T05:54:54.450Z,22.72
2022-08-26T05:57:23.114Z,22.81
2022-08-26T05:59:52.907Z,22.83
2022-08-26T06:02:24.194Z,22.88
2022-08-26T06:04:56.750Z,23.03
2022-08-26T06:07:46.268Z,23.08
2022-08-26T06:10:31.633Z,23.08
2022-08-26T06:13:11.860Z,23.32
2022-08-26T06:15:43.164Z,23.22
2022-08-26T06:18:14.626Z,23.21
2022-08-26T06:20:57.928Z,23.35
2022-08-26T06:23:51.150Z,23.35
2022-08-26T06:26:19.973Z,23.45
2022-08-26T06:28:48.252Z,23.25
2022-08-26T06:31:17.411Z,23.47
2022-08-26T06:33:46.222Z,23.54
2022-08-26T06:36:21.102Z,23.65
2022-08-26T06:38:50.017Z,23.66
2022-08-26T06:41:21.219Z,23.63
2022-08-26T06:43:50.999Z,23.76
2022-08-26T06:46:20.754Z,23.81
2022-08-26T06:48:50.878Z,23.82
2022-08-26T06:51:23.608Z,23.81
2022-08-26T06:53:54.865Z,23.83
2022-08-26T06:56:25.105Z,23.96
2022-08-26T06:58:55.841Z,24.17
2022-08-26T07:01:26.340Z,24.10
2022-08-26T07:03:56.985Z,24.12
2022-08-26T07:06:28.209Z,24.17
2022-08-26T07:09:03.365Z,24.39
2022-08-26T07:11:34.093Z,24.35
2022-08-26T07:14:03.003Z,24.35
2022-08-26T07:16:32.180Z,24.62
2022-08-26T07:19:03.432Z,24.52
2022-08-26T07:21:42.071Z,24.60
2022-08-26T07:24:18.780Z,24.50
2022-08-26T07:26:48.632Z,24.45
2022-08-26T07:29:20.267Z,24.47
2022-08-26T07:31:53.168Z,24.62
2022-08-26T07:34:26.204Z,24.79
2022-08-26T07:36:57.085Z,24.69
2022-08-26T07:39:28.032Z,24.75
2022-08-26T07:41:57.545Z,24.97
2022-08-26T07:44:27.258Z,24.94
2022-08-26T07:49:23.626Z,25.11
2022-08-26T07:51:52.361Z,25.18
2022-08-26T07:54:26.658Z,25.32
2022-08-26T07:56:56.333Z,25.25
2022-08-26T07:59:25.836Z,25.29
2022-08-26T08:01:53.981Z,25.24
2022-08-26T08:04:26.735Z,25.36
2022-08-26T08:06:56.104Z,25.63
2022-08-26T08:09:26.615Z,25.56
2022-08-26T08:11:56.510Z,25.61
2022-08-26T08:14:25.103Z,25.73
2022-08-26T08:16:55.384Z,25.67
2022-08-26T08:19:36.822Z,25.71
2022-08-26T08:22:17.459Z,25.74
2022-08-26T08:24:53.027Z,25.78
2022-08-26T08:27:24.090Z,25.83
2022-08-26T08:29:54.363Z,25.94
2022-08-26T08:32:24.869Z,26.00
2022-08-26T08:34:53.766Z,26.07
2022-08-26T08:37:21.938Z,26.15
2022-08-26T08:39:51.657Z,26.25
2022-08-26T08:42:35.610Z,26.18
2022-08-26T08:45:08.380Z,26.26
2022-08-26T08:47:39.828Z,26.26
2022-08-26T08:50:17.818Z,26.30
2022-08-26T08:52:53.894Z,26.38
2022-08-26T08:55:25.822Z,26.40
2022-08-26T08:58:04.543Z,26.63
2022-08-26T09:00:40.972Z,26.58
2022-08-26T09:03:21.479Z,26.89
2022-08-26T09:05:51.575Z,26.78
2022-08-26T09:08:27.656Z,26.92
2022-08-26T09:11:00.731Z,27.03
2022-08-26T09:13:31.691Z,27.01
2022-08-26T09:16:07.641Z,27.07
2022-08-26T09:18:52.942Z,27.02
2022-08-26T09:21:23.556Z,27.00
2022-08-26T09:23:56.979Z,26.99
2022-08-26T09:26:30.973Z,27.02
2022-08-26T09:29:02.439Z,27.09
2022-08-26T09:31:33.022Z,27.13
2022-08-26T09:34:10.217Z,27.11
2022-08-26T09:36:43.813Z,27.21
2022-08-26T09:39:37.877Z,27.21
2022-08-26T09:42:11.873Z,27.33
2022-08-26T09:44:56.536Z,27.32
2022-08-26T09:47:29.816Z,27.55
2022-08-26T09:50:02.260Z,27.72
2022-08-26T09:52:30.363Z,27.80
2022-08-26T09:55:06.008Z,27.87
2022-08-26T09:57:38.287Z,28.06
2022-08-26T10:00:25.729Z,28.16
2022-08-26T10:03:07.265Z,28.37
2022-08-26T10:05:41.462Z,28.46
2022-08-26T10:08:24.736Z,28.49
2022-08-26T10:10:54.322Z,28.49
2022-08-26T10:13:29.560Z,28.48
2022-08-26T10:16:10.740Z,28.82
2022-08-26T10:18:42.291Z,29.00
2022-08-26T10:21:14.161Z,29.09
2022-08-26T10:23:49.788Z,29.32
2022-08-26T10:26:24.134Z,29.44
2022-08-26T10:28:57.840Z,29.48
2022-08-26T10:31:30.845Z,29.25
2022-08-26T10:34:10.448Z,29.37
2022-08-26T10:37:15.522Z,29.36
2022-08-26T10:39:46.632Z,29.45
2022-08-26T10:42:21.814Z,29.69
2022-08-26T10:45:05.360Z,29.71
2022-08-26T10:47:39.804Z,29.63
2022-08-26T10:50:09.584Z,29.61
2022-08-26T10:52:53.646Z,29.54
2022-08-26T10:55:27.442Z,29.61
2022-08-26T10:57:59.448Z,29.73
2022-08-26T11:00:54.310Z,29.89
2022-08-26T11:03:40.029Z,30.13
2022-08-26T11:06:23.929Z,30.12
2022-08-26T11:08:53.960Z,30.21
2022-08-26T11:11:45.419Z,30.37
2022-08-26T11:14:53.115Z,30.66
2022-08-26T11:18:00.103Z,30.53
2022-08-26T11:20:35.959Z,30.86
2022-08-26T11:23:41.630Z,31.05
2022-08-26T11:26:35.611Z,31.12
2022-08-26T11:29:12.254Z,31.13
2022-08-26T11:31:57.054Z,31.33
2022-08-26T11:34:57.092Z,31.25
2022-08-26T11:37:33.295Z,31.35
2022-08-26T11:40:04.984Z,31.32
2022-08-26T11:42:41.044Z,31.38
2022-08-26T11:45:20.147Z,31.61
2022-08-26T11:47:49.476Z,31.70
2022-08-26T11:50:26.997Z,31.40
2022-08-26T11:53:01.727Z,31.35
2022-08-26T11:55:32.250Z,31.66
2022-08-26T11:58:05.033Z,31.39
2022-08-26T12:00:54.363Z,31.18
2022-08-26T12:03:26.974Z,31.40
2022-08-26T12:05:57.366Z,31.27
2022-08-26T12:08:29.182Z,31.47
2022-08-26T12:11:06.417Z,31.78
2022-08-26T12:13:35.459Z,32.03
2022-08-26T12:16:07.780Z,31.98
2022-08-26T12:18:38.509Z,31.62
2022-08-26T12:21:16.259Z,31.97
2022-08-26T12:23:46.885Z,32.31
2022-08-26T12:26:28.145Z,32.35
2022-08-26T12:28:58.217Z,32.53
2022-08-26T12:31:31.265Z,32.84
2022-08-26T12:34:01.131Z,32.88
2022-08-26T12:36:37.230Z,32.74
2022-08-26T12:39:11.064Z,32.16
2022-08-26T12:41:50.206Z,32.12
2022-08-26T12:44:42.565Z,32.75
2022-08-26T12:47:30.977Z,33.13
2022-08-26T12:50:18.312Z,33.57
2022-08-26T12:52:59.244Z,33.78
2022-08-26T12:55:36.588Z,33.67
2022-08-26T12:58:23.035Z,33.76
2022-08-26T13:00:52.705Z,33.30
2022-08-26T13:03:43.427Z,33.32
2022-08-26T13:06:19.156Z,33.65
2022-08-26T13:08:51.458Z,33.80
2022-08-26T13:11:22.446Z,33.00
2022-08-26T13:13:53.525Z,32.51
2022-08-26T13:16:22.425Z,32.63
2022-08-26T13:18:53.137Z,33.15
2022-08-26T13:21:24.561Z,33.67
2022-08-26T13:23:56.005Z,33.98
2022-08-26T13:26:24.716Z,34.10
2022-08-26T13:29:01.367Z,34.20
2022-08-26T13:31:33.064Z,34.44
2022-08-26T13:34:03.738Z,33.77
2022-08-26T13:36:32.814Z,32.63
2022-08-26T13:39:03.450Z,32.95
2022-08-26T13:41:33.056Z,33.58
2022-08-26T13:44:02.263Z,34.15
2022-08-26T13:46:30.921Z,34.30
2022-08-26T13:48:59.347Z,34.25
2022-08-26T13:51:28.498Z,34.42
2022-08-26T13:53:58.119Z,34.53
2022-08-26T13:56:30.970Z,34.58
2022-08-26T13:59:01.243Z,34.97
2022-08-26T14:01:31.363Z,35.10
2022-08-26T14:04:00.709Z,34.85
2022-08-26T14:06:33.459Z,34.24
2022-08-26T14:09:05.246Z,33.55
2022-08-26T14:11:50.866Z,32.97
2022-08-26T14:14:22.981Z,32.58
2022-08-26T14:16:58.695Z,32.38
2022-08-26T14:19:31.178Z,32.27
2022-08-26T14:22:01.514Z,32.27
2022-08-26T14:24:31.254Z,32.88
2022-08-26T14:27:01.116Z,33.29
2022-08-26T14:29:29.388Z,33.52
2022-08-26T14:31:58.773Z,33.64
2022-08-26T14:34:29.991Z,33.77
2022-08-26T14:36:58.203Z,33.77
2022-08-26T14:39:37.367Z,33.76
2022-08-26T14:42:09.101Z,33.78
2022-08-26T14:44:38.707Z,33.77
2022-08-26T14:47:08.020Z,33.75
2022-08-26T14:49:37.720Z,33.76
2022-08-26T14:52:05.976Z,33.78
2022-08-26T14:54:34.234Z,33.85
2022-08-26T14:57:04.973Z,33.82
2022-08-26T14:59:38.830Z,33.97
2022-08-26T15:02:09.150Z,33.93
2022-08-26T15:04:43.664Z,33.90
2022-08-26T15:07:12.926Z,33.88
2022-08-26T15:09:42.115Z,33.75
2022-08-26T15:12:10.357Z,33.53
2022-08-26T15:14:46.518Z,33.52
2022-08-26T15:17:17.022Z,33.42
2022-08-26T15:19:45.478Z,33.21
2022-08-26T15:22:14.841Z,33.12
2022-08-26T15:24:44.725Z,32.87
2022-08-26T15:27:15.551Z,32.59
2022-08-26T15:29:49.749Z,32.40
2022-08-26T15:32:18.895Z,32.73
2022-08-26T15:34:50.055Z,33.01
2022-08-26T15:37:19.215Z,33.27
2022-08-26T15:39:56.871Z,33.26
2022-08-26T15:42:25.392Z,33.24
2022-08-26T15:44:57.296Z,33.07
2022-08-26T15:47:28.297Z,32.68
2022-08-26T15:49:58.267Z,32.40
2022-08-26T15:52:28.986Z,32.38
2022-08-26T15:54:58.785Z,32.52
2022-08-26T15:57:30.269Z,32.84
2022-08-26T16:00:04.496Z,33.24
2022-08-26T16:02:57.081Z,33.65
2022-08-26T16:05:39.506Z,33.90
2022-08-26T16:08:09.891Z,34.07
2022-08-26T16:10:50.561Z,34.11
2022-08-26T16:13:23.843Z,34.12
2022-08-26T16:16:19.030Z,34.22
2022-08-26T16:18:51.820Z,34.07
2022-08-26T16:21:22.014Z,34.10
2022-08-26T16:23:51.010Z,33.77
2022-08-26T16:26:27.739Z,33.49
2022-08-26T16:28:56.508Z,33.14
2022-08-26T16:31:36.155Z,32.83
2022-08-26T16:34:10.798Z,32.34
2022-08-26T16:36:48.529Z,32.02
2022-08-26T16:39:20.118Z,31.76
2022-08-26T16:41:49.161Z,31.53
2022-08-26T16:44:18.622Z,31.35
2022-08-26T16:46:50.582Z,31.20
2022-08-26T16:49:28.245Z,31.06
2022-08-26T16:51:56.948Z,30.96
2022-08-26T16:54:27.631Z,30.83
2022-08-26T16:56:58.640Z,30.76
2022-08-26T16:59:28.162Z,30.68
2022-08-26T17:01:58.469Z,30.55
2022-08-26T17:04:28.344Z,30.53
2022-08-26T17:06:56.996Z,30.41
2022-08-26T17:09:26.868Z,30.30
2022-08-26T17:11:55.952Z,30.26
2022-08-26T17:14:26.339Z,30.19
2022-08-26T17:16:57.629Z,30.14
2022-08-26T17:19:29.605Z,30.07
2022-08-26T17:22:05.656Z,29.98
2022-08-26T17:24:36.065Z,29.97
2022-08-26T17:27:05.410Z,29.92
2022-08-26T17:29:35.389Z,29.87
2022-08-26T17:32:03.801Z,29.82
2022-08-26T17:34:35.655Z,29.79
2022-08-26T17:37:04.221Z,29.71
2022-08-26T17:39:33.709Z,29.69
2022-08-26T17:42:02.005Z,29.61
2022-08-26T17:44:31.868Z,29.58
2022-08-26T17:46:59.981Z,29.54
2022-08-26T17:49:28.782Z,29.50
2022-08-26T17:52:00.013Z,29.47
2022-08-26T17:54:32.046Z,29.42
2022-08-26T17:57:00.620Z,29.35
2022-08-26T17:59:30.847Z,29.34
2022-08-26T18:02:01.956Z,29.29
2022-08-26T18:04:31.299Z,29.22
2022-08-26T18:07:10.325Z,29.14
2022-08-26T18:09:38.964Z,29.08
2022-08-26T18:12:13.387Z,29.05
2022-08-26T18:14:44.894Z,28.97
2022-08-26T18:17:15.377Z,28.90
2022-08-26T18:20:07.016Z,28.89
2022-08-26T18:22:41.388Z,28.84
2022-08-26T18:25:18.796Z,28.83
2022-08-26T18:27:53.172Z,28.83
2022-08-26T18:30:23.744Z,28.88
2022-08-26T18:32:53.788Z,28.82
2022-08-26T18:35:29.434Z,28.72
2022-08-26T18:38:01.420Z,28.67
2022-08-26T18:40:47.658Z,28.62
2022-08-26T18:43:18.133Z,28.53
2022-08-26T18:45:56.456Z,28.61
2022-08-26T18:48:28.646Z,28.65
2022-08-26T18:51:05.860Z,28.64
2022-08-26T18:53:38.353Z,28.59
2022-08-26T18:56:07.673Z,28.62
2022-08-26T18:58:36.607Z,28.52
2022-08-26T19:01:09.390Z,28.61
2022-08-26T19:03:40.766Z,28.63
2022-08-26T19:06:09.977Z,28.53
2022-08-26T19:08:46.315Z,28.49
2022-08-26T19:11:31.228Z,28.52
2022-08-26T19:16:50.347Z,28.43
2022-08-26T19:19:28.179Z,28.47
2022-08-26T19:21:59.763Z,28.46
2022-08-26T19:24:46.031Z,28.37
2022-08-26T19:27:19.395Z,28.46
2022-08-26T19:29:53.661Z,28.15
2022-08-26T19:32:27.162Z,28.08
2022-08-26T19:34:59.626Z,27.85
2022-08-26T19:37:29.959Z,27.83
2022-08-26T19:40:13.231Z,27.62
2022-08-26T19:42:45.202Z,27.74
2022-08-26T19:45:24.812Z,27.48
2022-08-26T19:48:06.782Z,27.51
2022-08-26T19:50:41.050Z,27.45
2022-08-26T19:53:12.008Z,27.34
2022-08-26T19:56:04.253Z,27.20
2022-08-26T19:58:35.711Z,27.06
2022-08-26T20:01:18.308Z,27.22
2022-08-26T20:03:51.016Z,27.26
2022-08-26T20:06:20.167Z,27.18
2022-08-26T20:08:52.111Z,27.20
2022-08-26T20:11:28.758Z,27.18
2022-08-26T20:13:57.657Z,27.08
2022-08-26T20:16:26.198Z,27.07
2022-08-26T20:19:12.764Z,27.00
2022-08-26T20:21:43.694Z,27.10
2022-08-26T20:24:14.891Z,27.09
2022-08-26T20:26:47.116Z,27.04
2022-08-26T20:29:18.930Z,27.05
2022-08-26T20:31:52.626Z,27.04
2022-08-26T20:34:22.057Z,26.97
2022-08-26T20:36:59.696Z,26.97
2022-08-26T20:39:32.130Z,27.03
2022-08-26T20:42:03.354Z,26.91
2022-08-26T20:44:35.145Z,26.73
2022-08-26T20:47:04.874Z,26.87
2022-08-26T20:49:33.277Z,26.86
2022-08-26T20:52:04.875Z,26.80
2022-08-26T20:54:33.185Z,26.69
2022-08-26T20:57:03.971Z,26.79
2022-08-26T20:59:32.227Z,26.69
2022-08-26T21:02:01.888Z,26.82
2022-08-26T21:04:31.432Z,26.86
2022-08-26T21:06:59.680Z,26.85
2022-08-26T21:09:31.762Z,26.84
2022-08-26T21:12:03.573Z,26.85
2022-08-26T21:14:33.888Z,26.89
2022-08-26T21:17:06.107Z,26.69
2022-08-26T21:19:34.426Z,26.86
2022-08-26T21:22:04.179Z,26.77
2022-08-26T21:24:33.739Z,26.92
2022-08-26T21:27:02.243Z,26.74
2022-08-26T21:29:31.642Z,26.79
2022-08-26T21:32:03.677Z,26.63
2022-08-26T21:34:33.520Z,26.57
2022-08-26T21:37:02.165Z,26.69
2022-08-26T21:39:39.240Z,26.63
2022-08-26T21:42:08.245Z,26.48
2022-08-26T21:44:39.059Z,26.46
2022-08-26T21:47:10.992Z,26.32
2022-08-26T21:49:44.202Z,26.59
2022-08-26T21:52:15.326Z,26.57
2022-08-26T21:54:49.657Z,26.57
2022-08-26T21:57:18.933Z,26.53
2022-08-26T21:59:47.630Z,26.29
2022-08-26T22:02:18.271Z,26.22
2022-08-26T22:04:48.929Z,26.13
2022-08-26T22:07:20.426Z,26.18
2022-08-26T22:10:04.632Z,26.01
2022-08-26T22:12:42.079Z,25.88
2022-08-26T22:15:14.441Z,26.00
2022-08-26T22:17:46.028Z,25.77
2022-08-26T22:20:16.449Z,25.83
2022-08-26T22:22:45.841Z,25.84
2022-08-26T22:25:15.454Z,25.83
2022-08-26T22:27:44.634Z,25.86
2022-08-26T22:30:15.892Z,25.86
2022-08-26T22:32:45.846Z,25.66
2022-08-26T22:35:28.991Z,25.63
2022-08-26T22:37:58.606Z,25.56
2022-08-26T22:40:32.978Z,25.47
2022-08-26T22:43:03.525Z,25.58
2022-08-26T22:45:33.640Z,25.41
2022-08-26T22:48:04.764Z,25.31
2022-08-26T22:50:34.090Z,25.43
2022-08-26T22:53:02.794Z,25.38
2022-08-26T22:55:34.058Z,25.15
2022-08-26T22:58:02.361Z,25.38
2022-08-26T23:00:31.989Z,25.35
2022-08-26T23:03:04.303Z,25.29
2022-08-26T23:05:34.172Z,25.61
2022-08-26T23:08:03.066Z,25.51
2022-08-26T23:10:33.869Z,25.55
2022-08-26T23:13:03.774Z,25.54
2022-08-26T23:15:36.169Z,25.39
2022-08-26T23:18:08.128Z,25.46
2022-08-26T23:20:37.648Z,25.45
2022-08-26T23:23:07.764Z,25.46
2022-08-26T23:25:38.374Z,25.44
2022-08-26T23:28:12.532Z,25.39
2022-08-26T23:30:41.550Z,25.34
2022-08-26T23:33:11.006Z,25.39
2022-08-26T23:35:38.459Z,25.30
2022-08-26T23:38:10.187Z,25.25
2022-08-26T23:40:47.794Z,25.16
2022-08-26T23:43:17.770Z,24.82
2022-08-26T23:45:46.523Z,25.26
2022-08-26T23:48:14.685Z,25.24
2022-08-26T23:51:07.212Z,25.11
2022-08-26T23:53:35.780Z,25.00
2022-08-26T23:56:05.537Z,25.07
2022-08-26T23:58:34.563Z,24.90
